Putnam Station, New York
Current Conditions -  °F | °C
As of 6:35 AM on Friday 24 Oct 2014 (Local Time) from K6B0 Reporting Station
Drizzle Drizzle  
Wind Chill: 37°   Ceiling: 400
Heat Index: 42°   Visibility: 3mi
Dew Point: 42°   Wind: 8mph
Humidity: 100%   Direction: 340°NNW
Pressure: 29.83"   Gusts: NA
Location:  43.74°N, 73.4°W
Report Text: K6B0 241035Z AUTO 34007KT 3SM +DZ OVC004 06/06 A2983 RMK AO2 P0001 T00550055
Loading
Personal Weather Stations






























Interactive Weather Map New forecast layout! Learn more

10-Day Weather Forecast

Advertisements
Track Severe Weather on mobile